sensor_id;sensor_type;location;lat;lon;timestamp;P1;durP1;ratioP1;P2;durP2;ratioP2
51782;SDS011;37845;53.196;5.638;2023-06-04T00:02:23;12.45;;;6.30;;
51782;SDS011;37845;53.196;5.638;2023-06-04T00:04:53;15.55;;;7.38;;
51782;SDS011;37845;53.196;5.638;2023-06-04T00:07:32;13.75;;;7.10;;
51782;SDS011;37845;53.196;5.638;2023-06-04T00:09:58;16.20;;;7.32;;
51782;SDS011;37845;53.196;5.638;2023-06-04T00:14:50;19.05;;;7.20;;
51782;SDS011;37845;53.196;5.638;2023-06-04T00:17:18;12.40;;;6.47;;
51782;SDS011;37845;53.196;5.638;2023-06-04T00:19:46;16.13;;;7.00;;
51782;SDS011;37845;53.196;5.638;2023-06-04T00:22:23;12.07;;;6.72;;
51782;SDS011;37845;53.196;5.638;2023-06-04T00:24:52;14.60;;;6.57;;
51782;SDS011;37845;53.196;5.638;2023-06-04T00:27:23;12.10;;;7.30;;
51782;SDS011;37845;53.196;5.638;2023-06-04T00:32:15;14.40;;;6.10;;
51782;SDS011;37845;53.196;5.638;2023-06-04T00:34:41;11.27;;;6.75;;
51782;SDS011;37845;53.196;5.638;2023-06-04T00:37:11;13.48;;;5.85;;
51782;SDS011;37845;53.196;5.638;2023-06-04T00:42:09;29.55;;;8.23;;
51782;SDS011;37845;53.196;5.638;2023-06-04T00:44:40;18.75;;;5.13;;
51782;SDS011;37845;53.196;5.638;2023-06-04T00:47:19;13.82;;;6.43;;
51782;SDS011;37845;53.196;5.638;2023-06-04T00:49:46;15.48;;;5.40;;
51782;SDS011;37845;53.196;5.638;2023-06-04T00:52:23;15.40;;;6.00;;
51782;SDS011;37845;53.196;5.638;2023-06-04T00:54:55;9.35;;;5.20;;
51782;SDS011;37845;53.196;5.638;2023-06-04T00:57:24;21.92;;;6.38;;
51782;SDS011;37845;53.196;5.638;2023-06-04T01:02:23;16.35;;;5.25;;
51782;SDS011;37845;53.196;5.638;2023-06-04T01:05:07;16.53;;;5.63;;
51782;SDS011;37845;53.196;5.638;2023-06-04T01:07:46;16.85;;;6.35;;
51782;SDS011;37845;53.196;5.638;2023-06-04T01:10:13;15.27;;;6.03;;
51782;SDS011;37845;53.196;5.638;2023-06-04T01:15:40;8.43;;;5.35;;
51782;SDS011;37845;53.196;5.638;2023-06-04T01:18:08;9.30;;;4.88;;
51782;SDS011;37845;53.196;5.638;2023-06-04T01:21:12;10.98;;;4.18;;
51782;SDS011;37845;53.196;5.638;2023-06-04T01:23:48;21.75;;;5.18;;
51782;SDS011;37845;53.196;5.638;2023-06-04T01:26:27;14.23;;;5.22;;
51782;SDS011;37845;53.196;5.638;2023-06-04T01:28:55;15.10;;;6.70;;
51782;SDS011;37845;53.196;5.638;2023-06-04T01:31:26;20.55;;;6.10;;
51782;SDS011;37845;53.196;5.638;2023-06-04T01:34:01;11.57;;;4.60;;
51782;SDS011;37845;53.196;5.638;2023-06-04T01:36:29;13.50;;;5.32;;
51782;SDS011;37845;53.196;5.638;2023-06-04T01:39:08;20.17;;;5.45;;
51782;SDS011;37845;53.196;5.638;2023-06-04T01:41:50;8.07;;;4.78;;
51782;SDS011;37845;53.196;5.638;2023-06-04T01:44:16;11.05;;;5.30;;
51782;SDS011;37845;53.196;5.638;2023-06-04T01:47:13;8.05;;;5.15;;
51782;SDS011;37845;53.196;5.638;2023-06-04T01:52:06;9.65;;;4.95;;
51782;SDS011;37845;53.196;5.638;2023-06-04T01:54:32;14.07;;;5.82;;
51782;SDS011;37845;53.196;5.638;2023-06-04T01:56:59;13.25;;;7.10;;
51782;SDS011;37845;53.196;5.638;2023-06-04T01:59:28;10.18;;;5.47;;
51782;SDS011;37845;53.196;5.638;2023-06-04T02:02:07;10.93;;;6.40;;
51782;SDS011;37845;53.196;5.638;2023-06-04T02:04:51;13.57;;;5.18;;
51782;SDS011;37845;53.196;5.638;2023-06-04T02:09:46;15.35;;;5.28;;
51782;SDS011;37845;53.196;5.638;2023-06-04T02:12:28;10.27;;;5.20;;
51782;SDS011;37845;53.196;5.638;2023-06-04T02:15:03;11.90;;;4.65;;
51782;SDS011;37845;53.196;5.638;2023-06-04T02:17:38;15.07;;;6.03;;
51782;SDS011;37845;53.196;5.638;2023-06-04T02:20:07;15.10;;;5.40;;
51782;SDS011;37845;53.196;5.638;2023-06-04T02:22:38;17.83;;;7.13;;
51782;SDS011;37845;53.196;5.638;2023-06-04T02:25:05;11.52;;;4.88;;
51782;SDS011;37845;53.196;5.638;2023-06-04T02:27:34;9.30;;;5.38;;
51782;SDS011;37845;53.196;5.638;2023-06-04T02:30:03;16.75;;;7.43;;
51782;SDS011;37845;53.196;5.638;2023-06-04T02:32:38;14.02;;;7.18;;
51782;SDS011;37845;53.196;5.638;2023-06-04T02:35:04;28.92;;;7.45;;
51782;SDS011;37845;53.196;5.638;2023-06-04T02:37:30;18.27;;;6.95;;
51782;SDS011;37845;53.196;5.638;2023-06-04T02:39:59;18.98;;;7.28;;
51782;SDS011;37845;53.196;5.638;2023-06-04T02:42:38;17.67;;;6.20;;
51782;SDS011;37845;53.196;5.638;2023-06-04T02:45:16;28.05;;;7.82;;
51782;SDS011;37845;53.196;5.638;2023-06-04T02:47:45;15.40;;;7.80;;
51782;SDS011;37845;53.196;5.638;2023-06-04T02:50:12;13.07;;;7.47;;
51782;SDS011;37845;53.196;5.638;2023-06-04T02:52:42;20.63;;;7.82;;
51782;SDS011;37845;53.196;5.638;2023-06-04T02:55:08;13.25;;;6.50;;
51782;SDS011;37845;53.196;5.638;2023-06-04T02:57:46;16.70;;;7.07;;
51782;SDS011;37845;53.196;5.638;2023-06-04T03:00:17;10.98;;;5.53;;
51782;SDS011;37845;53.196;5.638;2023-06-04T03:02:48;12.32;;;6.22;;
51782;SDS011;37845;53.196;5.638;2023-06-04T03:05:15;20.45;;;8.55;;
51782;SDS011;37845;53.196;5.638;2023-06-04T03:07:43;20.00;;;7.45;;
51782;SDS011;37845;53.196;5.638;2023-06-04T03:10:25;17.15;;;8.95;;
51782;SDS011;37845;53.196;5.638;2023-06-04T03:12:58;19.33;;;8.07;;
51782;SDS011;37845;53.196;5.638;2023-06-04T03:15:48;13.40;;;7.20;;
51782;SDS011;37845;53.196;5.638;2023-06-04T03:18:20;14.60;;;8.13;;
51782;SDS011;37845;53.196;5.638;2023-06-04T03:20:47;15.68;;;7.45;;
51782;SDS011;37845;53.196;5.638;2023-06-04T03:26:22;20.15;;;7.90;;
51782;SDS011;37845;53.196;5.638;2023-06-04T03:28:53;11.75;;;6.55;;
51782;SDS011;37845;53.196;5.638;2023-06-04T03:31:29;10.63;;;5.82;;
51782;SDS011;37845;53.196;5.638;2023-06-04T03:34:03;14.20;;;7.90;;
51782;SDS011;37845;53.196;5.638;2023-06-04T03:36:31;11.02;;;6.97;;
51782;SDS011;37845;53.196;5.638;2023-06-04T03:39:03;9.73;;;6.75;;
51782;SDS011;37845;53.196;5.638;2023-06-04T03:41:32;15.32;;;6.85;;
51782;SDS011;37845;53.196;5.638;2023-06-04T03:44:04;16.00;;;7.60;;
51782;SDS011;37845;53.196;5.638;2023-06-04T03:46:43;11.13;;;7.38;;
51782;SDS011;37845;53.196;5.638;2023-06-04T03:49:16;23.55;;;8.45;;
51782;SDS011;37845;53.196;5.638;2023-06-04T03:51:43;15.85;;;9.13;;
51782;SDS011;37845;53.196;5.638;2023-06-04T03:54:11;14.82;;;8.52;;
51782;SDS011;37845;53.196;5.638;2023-06-04T03:56:42;12.80;;;8.40;;
51782;SDS011;37845;53.196;5.638;2023-06-04T03:59:15;11.68;;;8.15;;
51782;SDS011;37845;53.196;5.638;2023-06-04T04:01:46;17.15;;;8.48;;
51782;SDS011;37845;53.196;5.638;2023-06-04T04:04:29;25.45;;;10.00;;
51782;SDS011;37845;53.196;5.638;2023-06-04T04:06:58;22.67;;;10.38;;
51782;SDS011;37845;53.196;5.638;2023-06-04T04:09:26;19.77;;;9.27;;
51782;SDS011;37845;53.196;5.638;2023-06-04T04:14:17;21.60;;;8.93;;
51782;SDS011;37845;53.196;5.638;2023-06-04T04:19:29;27.52;;;9.23;;
51782;SDS011;37845;53.196;5.638;2023-06-04T04:21:58;15.02;;;7.72;;
51782;SDS011;37845;53.196;5.638;2023-06-04T04:24:30;17.25;;;8.60;;
51782;SDS011;37845;53.196;5.638;2023-06-04T04:27:05;19.02;;;9.07;;
51782;SDS011;37845;53.196;5.638;2023-06-04T04:29:38;22.77;;;7.45;;
51782;SDS011;37845;53.196;5.638;2023-06-04T04:32:04;20.27;;;8.88;;
51782;SDS011;37845;53.196;5.638;2023-06-04T04:34:52;14.80;;;9.32;;
51782;SDS011;37845;53.196;5.638;2023-06-04T04:37:26;13.98;;;8.38;;
51782;SDS011;37845;53.196;5.638;2023-06-04T04:42:18;17.67;;;8.50;;
51782;SDS011;37845;53.196;5.638;2023-06-04T04:44:47;12.23;;;8.43;;
51782;SDS011;37845;53.196;5.638;2023-06-04T04:47:15;13.98;;;7.90;;
51782;SDS011;37845;53.196;5.638;2023-06-04T04:49:44;23.05;;;10.73;;
51782;SDS011;37845;53.196;5.638;2023-06-04T04:52:11;13.68;;;8.90;;
51782;SDS011;37845;53.196;5.638;2023-06-04T04:57:02;18.88;;;9.75;;
51782;SDS011;37845;53.196;5.638;2023-06-04T04:59:32;16.85;;;8.20;;
51782;SDS011;37845;53.196;5.638;2023-06-04T05:02:10;13.00;;;7.35;;
51782;SDS011;37845;53.196;5.638;2023-06-04T05:04:36;15.75;;;7.95;;
51782;SDS011;37845;53.196;5.638;2023-06-04T05:09:30;17.05;;;9.20;;
51782;SDS011;37845;53.196;5.638;2023-06-04T05:11:59;15.93;;;8.52;;
51782;SDS011;37845;53.196;5.638;2023-06-04T05:14:29;23.50;;;8.80;;
51782;SDS011;37845;53.196;5.638;2023-06-04T05:17:19;14.05;;;8.98;;
51782;SDS011;37845;53.196;5.638;2023-06-04T05:19:58;25.27;;;9.02;;
51782;SDS011;37845;53.196;5.638;2023-06-04T05:22:46;15.23;;;7.80;;
51782;SDS011;37845;53.196;5.638;2023-06-04T05:25:12;17.10;;;7.13;;
51782;SDS011;37845;53.196;5.638;2023-06-04T05:27:39;16.08;;;7.95;;
51782;SDS011;37845;53.196;5.638;2023-06-04T05:30:26;19.20;;;8.10;;
51782;SDS011;37845;53.196;5.638;2023-06-04T05:35:53;11.27;;;6.63;;
51782;SDS011;37845;53.196;5.638;2023-06-04T05:38:19;24.83;;;8.63;;
51782;SDS011;37845;53.196;5.638;2023-06-04T05:40:59;13.25;;;7.88;;
51782;SDS011;37845;53.196;5.638;2023-06-04T05:43:30;20.77;;;8.15;;
51782;SDS011;37845;53.196;5.638;2023-06-04T05:59:11;18.42;;;9.68;;
51782;SDS011;37845;53.196;5.638;2023-06-04T06:01:40;19.75;;;9.05;;
51782;SDS011;37845;53.196;5.638;2023-06-04T06:06:35;27.40;;;9.00;;
51782;SDS011;37845;53.196;5.638;2023-06-04T06:09:01;20.08;;;7.43;;
51782;SDS011;37845;53.196;5.638;2023-06-04T06:11:31;23.67;;;9.75;;
51782;SDS011;37845;53.196;5.638;2023-06-04T06:16:23;15.05;;;6.88;;
51782;SDS011;37845;53.196;5.638;2023-06-04T06:21:18;13.48;;;5.38;;
51782;SDS011;37845;53.196;5.638;2023-06-04T06:23:44;12.50;;;5.53;;
51782;SDS011;37845;53.196;5.638;2023-06-04T06:28:35;23.40;;;6.03;;
51782;SDS011;37845;53.196;5.638;2023-06-04T06:33:27;12.07;;;5.65;;
51782;SDS011;37845;53.196;5.638;2023-06-04T06:38:19;25.40;;;6.88;;
51782;SDS011;37845;53.196;5.638;2023-06-04T06:40:46;10.55;;;6.05;;
51782;SDS011;37845;53.196;5.638;2023-06-04T06:43:15;14.50;;;6.88;;
51782;SDS011;37845;53.196;5.638;2023-06-04T06:48:07;19.48;;;7.20;;
51782;SDS011;37845;53.196;5.638;2023-06-04T06:53:01;16.30;;;5.72;;
51782;SDS011;37845;53.196;5.638;2023-06-04T06:55:27;10.48;;;5.60;;
51782;SDS011;37845;53.196;5.638;2023-06-04T06:57:53;14.02;;;6.68;;
51782;SDS011;37845;53.196;5.638;2023-06-04T07:02:44;13.68;;;5.88;;
51782;SDS011;37845;53.196;5.638;2023-06-04T07:05:11;11.02;;;6.07;;
51782;SDS011;37845;53.196;5.638;2023-06-04T07:07:40;18.13;;;6.72;;
51782;SDS011;37845;53.196;5.638;2023-06-04T07:10:06;15.48;;;5.90;;
51782;SDS011;37845;53.196;5.638;2023-06-04T07:12:33;14.07;;;5.38;;
51782;SDS011;37845;53.196;5.638;2023-06-04T07:14:59;16.85;;;6.10;;
51782;SDS011;37845;53.196;5.638;2023-06-04T07:43:22;11.75;;;4.93;;
51782;SDS011;37845;53.196;5.638;2023-06-04T07:45:48;13.85;;;5.57;;
51782;SDS011;37845;53.196;5.638;2023-06-04T07:56:22;8.25;;;4.75;;
51782;SDS011;37845;53.196;5.638;2023-06-04T08:01:13;12.05;;;5.13;;
51782;SDS011;37845;53.196;5.638;2023-06-04T08:03:41;10.70;;;3.92;;
51782;SDS011;37845;53.196;5.638;2023-06-04T08:08:41;9.82;;;4.70;;
51782;SDS011;37845;53.196;5.638;2023-06-04T08:11:13;10.95;;;4.45;;
51782;SDS011;37845;53.196;5.638;2023-06-04T08:13:42;15.80;;;6.45;;
51782;SDS011;37845;53.196;5.638;2023-06-04T08:16:08;18.77;;;5.22;;
51782;SDS011;37845;53.196;5.638;2023-06-04T08:18:44;13.43;;;5.17;;
51782;SDS011;37845;53.196;5.638;2023-06-04T08:23:36;12.80;;;5.00;;
51782;SDS011;37845;53.196;5.638;2023-06-04T08:26:06;16.17;;;5.38;;
51782;SDS011;37845;53.196;5.638;2023-06-04T08:28:32;18.65;;;4.68;;
51782;SDS011;37845;53.196;5.638;2023-06-04T08:33:23;8.55;;;4.25;;
51782;SDS011;37845;53.196;5.638;2023-06-04T08:35:49;20.65;;;5.15;;
51782;SDS011;37845;53.196;5.638;2023-06-04T08:40:41;14.18;;;5.07;;
51782;SDS011;37845;53.196;5.638;2023-06-04T08:43:08;15.05;;;5.35;;
51782;SDS011;37845;53.196;5.638;2023-06-04T08:45:41;12.10;;;4.40;;
51782;SDS011;37845;53.196;5.638;2023-06-04T08:48:10;8.07;;;3.65;;
51782;SDS011;37845;53.196;5.638;2023-06-04T08:50:39;16.15;;;4.38;;
51782;SDS011;37845;53.196;5.638;2023-06-04T08:53:16;9.05;;;4.03;;
51782;SDS011;37845;53.196;5.638;2023-06-04T08:55:42;10.38;;;3.08;;
51782;SDS011;37845;53.196;5.638;2023-06-04T09:00:49;16.13;;;4.70;;
51782;SDS011;37845;53.196;5.638;2023-06-04T09:03:15;10.52;;;4.53;;
51782;SDS011;37845;53.196;5.638;2023-06-04T09:05:44;9.27;;;4.10;;
51782;SDS011;37845;53.196;5.638;2023-06-04T09:08:13;8.63;;;3.75;;
51782;SDS011;37845;53.196;5.638;2023-06-04T09:10:42;7.57;;;3.42;;
51782;SDS011;37845;53.196;5.638;2023-06-04T09:13:11;10.10;;;4.72;;
51782;SDS011;37845;53.196;5.638;2023-06-04T09:15:40;12.32;;;3.85;;
51782;SDS011;37845;53.196;5.638;2023-06-04T09:18:09;13.07;;;4.50;;
51782;SDS011;37845;53.196;5.638;2023-06-04T09:20:34;8.60;;;3.47;;
51782;SDS011;37845;53.196;5.638;2023-06-04T09:23:14;8.52;;;3.95;;
51782;SDS011;37845;53.196;5.638;2023-06-04T09:25:42;10.90;;;4.68;;
51782;SDS011;37845;53.196;5.638;2023-06-04T09:28:08;12.02;;;4.72;;
51782;SDS011;37845;53.196;5.638;2023-06-04T09:30:35;6.63;;;3.00;;
51782;SDS011;37845;53.196;5.638;2023-06-04T09:33:07;9.15;;;4.13;;
51782;SDS011;37845;53.196;5.638;2023-06-04T09:40:39;7.43;;;3.25;;
51782;SDS011;37845;53.196;5.638;2023-06-04T09:43:07;13.43;;;3.28;;
51782;SDS011;37845;53.196;5.638;2023-06-04T09:45:35;7.93;;;3.90;;
51782;SDS011;37845;53.196;5.638;2023-06-04T09:50:29;11.40;;;4.07;;
51782;SDS011;37845;53.196;5.638;2023-06-04T09:53:12;10.07;;;3.42;;
51782;SDS011;37845;53.196;5.638;2023-06-04T09:55:38;7.78;;;3.90;;
51782;SDS011;37845;53.196;5.638;2023-06-04T09:58:04;13.38;;;3.67;;
51782;SDS011;37845;53.196;5.638;2023-06-04T10:00:31;17.27;;;5.05;;
51782;SDS011;37845;53.196;5.638;2023-06-04T10:02:57;8.95;;;3.90;;
51782;SDS011;37845;53.196;5.638;2023-06-04T10:05:26;6.75;;;4.20;;
51782;SDS011;37845;53.196;5.638;2023-06-04T10:08:00;13.55;;;4.13;;
51782;SDS011;37845;53.196;5.638;2023-06-04T10:10:30;11.88;;;4.07;;
51782;SDS011;37845;53.196;5.638;2023-06-04T10:13:09;11.50;;;3.85;;
51782;SDS011;37845;53.196;5.638;2023-06-04T10:15:53;5.97;;;3.40;;
51782;SDS011;37845;53.196;5.638;2023-06-04T10:18:21;6.57;;;3.70;;
51782;SDS011;37845;53.196;5.638;2023-06-04T10:20:50;9.63;;;3.75;;
51782;SDS011;37845;53.196;5.638;2023-06-04T10:23:51;9.65;;;3.78;;
51782;SDS011;37845;53.196;5.638;2023-06-04T10:26:17;8.23;;;3.83;;
51782;SDS011;37845;53.196;5.638;2023-06-04T10:31:40;10.02;;;2.97;;
51782;SDS011;37845;53.196;5.638;2023-06-04T10:34:06;6.05;;;3.80;;
51782;SDS011;37845;53.196;5.638;2023-06-04T10:36:41;8.43;;;3.60;;
51782;SDS011;37845;53.196;5.638;2023-06-04T10:49:54;9.68;;;4.13;;
51782;SDS011;37845;53.196;5.638;2023-06-04T10:52:23;10.95;;;4.28;;
51782;SDS011;37845;53.196;5.638;2023-06-04T10:54:49;10.32;;;4.47;;
51782;SDS011;37845;53.196;5.638;2023-06-04T10:57:18;9.95;;;3.80;;
51782;SDS011;37845;53.196;5.638;2023-06-04T10:59:57;10.07;;;4.57;;
51782;SDS011;37845;53.196;5.638;2023-06-04T11:02:25;10.63;;;3.75;;
51782;SDS011;37845;53.196;5.638;2023-06-04T11:05:04;13.30;;;4.63;;
51782;SDS011;37845;53.196;5.638;2023-06-04T11:07:42;8.27;;;4.47;;
51782;SDS011;37845;53.196;5.638;2023-06-04T11:12:42;7.57;;;3.53;;
51782;SDS011;37845;53.196;5.638;2023-06-04T11:15:12;10.20;;;3.42;;
51782;SDS011;37845;53.196;5.638;2023-06-04T11:17:48;10.32;;;4.50;;
51782;SDS011;37845;53.196;5.638;2023-06-04T11:20:16;9.23;;;3.50;;
51782;SDS011;37845;53.196;5.638;2023-06-04T11:22:49;9.05;;;3.22;;
51782;SDS011;37845;53.196;5.638;2023-06-04T11:25:19;10.68;;;3.22;;
51782;SDS011;37845;53.196;5.638;2023-06-04T11:27:47;8.13;;;3.40;;
51782;SDS011;37845;53.196;5.638;2023-06-04T11:30:18;7.47;;;3.53;;
51782;SDS011;37845;53.196;5.638;2023-06-04T11:32:44;9.20;;;4.97;;
51782;SDS011;37845;53.196;5.638;2023-06-04T11:35:15;11.25;;;3.90;;
51782;SDS011;37845;53.196;5.638;2023-06-04T11:38:01;5.32;;;3.03;;
51782;SDS011;37845;53.196;5.638;2023-06-04T11:40:29;9.85;;;3.97;;
51782;SDS011;37845;53.196;5.638;2023-06-04T11:42:56;13.15;;;3.83;;
51782;SDS011;37845;53.196;5.638;2023-06-04T11:49:08;10.13;;;3.53;;
51782;SDS011;37845;53.196;5.638;2023-06-04T11:51:36;8.10;;;3.83;;
51782;SDS011;37845;53.196;5.638;2023-06-04T11:54:02;6.43;;;3.35;;
51782;SDS011;37845;53.196;5.638;2023-06-04T11:56:28;10.27;;;3.47;;
51782;SDS011;37845;53.196;5.638;2023-06-04T11:58:57;15.02;;;3.35;;
51782;SDS011;37845;53.196;5.638;2023-06-04T12:01:23;10.23;;;3.78;;
51782;SDS011;37845;53.196;5.638;2023-06-04T12:03:55;5.53;;;3.15;;
51782;SDS011;37845;53.196;5.638;2023-06-04T12:06:21;7.40;;;3.28;;
51782;SDS011;37845;53.196;5.638;2023-06-04T12:08:56;9.05;;;3.92;;
51782;SDS011;37845;53.196;5.638;2023-06-04T12:11:24;9.40;;;3.90;;
51782;SDS011;37845;53.196;5.638;2023-06-04T12:13:58;5.40;;;3.15;;
51782;SDS011;37845;53.196;5.638;2023-06-04T12:16:40;12.52;;;4.50;;
51782;SDS011;37845;53.196;5.638;2023-06-04T12:19:10;7.55;;;3.97;;
51782;SDS011;37845;53.196;5.638;2023-06-04T12:21:40;12.00;;;4.07;;
51782;SDS011;37845;53.196;5.638;2023-06-04T12:24:12;12.02;;;4.40;;
51782;SDS011;37845;53.196;5.638;2023-06-04T12:26:40;9.32;;;4.13;;
51782;SDS011;37845;53.196;5.638;2023-06-04T12:29:11;11.05;;;3.28;;
51782;SDS011;37845;53.196;5.638;2023-06-04T12:31:39;10.73;;;3.75;;
51782;SDS011;37845;53.196;5.638;2023-06-04T12:34:06;5.25;;;3.33;;
51782;SDS011;37845;53.196;5.638;2023-06-04T12:36:32;11.98;;;4.10;;
51782;SDS011;37845;53.196;5.638;2023-06-04T12:39:02;7.05;;;3.38;;
51782;SDS011;37845;53.196;5.638;2023-06-04T12:41:36;12.35;;;4.45;;
51782;SDS011;37845;53.196;5.638;2023-06-04T12:44:02;8.93;;;3.75;;
51782;SDS011;37845;53.196;5.638;2023-06-04T12:46:28;11.82;;;3.75;;
51782;SDS011;37845;53.196;5.638;2023-06-04T12:48:54;11.02;;;3.78;;
51782;SDS011;37845;53.196;5.638;2023-06-04T12:51:20;16.02;;;4.05;;
51782;SDS011;37845;53.196;5.638;2023-06-04T12:54:01;7.07;;;3.30;;
51782;SDS011;37845;53.196;5.638;2023-06-04T12:56:26;6.82;;;3.33;;
51782;SDS011;37845;53.196;5.638;2023-06-04T12:58:52;15.52;;;4.30;;
51782;SDS011;37845;53.196;5.638;2023-06-04T13:06:59;7.10;;;3.00;;
51782;SDS011;37845;53.196;5.638;2023-06-04T13:09:31;6.93;;;3.25;;
51782;SDS011;37845;53.196;5.638;2023-06-04T13:17:14;11.35;;;3.05;;
51782;SDS011;37845;53.196;5.638;2023-06-04T13:19:45;6.00;;;3.33;;
51782;SDS011;37845;53.196;5.638;2023-06-04T13:22:11;8.35;;;3.38;;
51782;SDS011;37845;53.196;5.638;2023-06-04T13:24:37;7.80;;;3.33;;
51782;SDS011;37845;53.196;5.638;2023-06-04T13:27:03;8.25;;;3.75;;
51782;SDS011;37845;53.196;5.638;2023-06-04T13:29:31;10.18;;;3.60;;
51782;SDS011;37845;53.196;5.638;2023-06-04T13:31:58;8.93;;;3.92;;
51782;SDS011;37845;53.196;5.638;2023-06-04T13:34:24;8.48;;;3.42;;
51782;SDS011;37845;53.196;5.638;2023-06-04T13:36:51;12.32;;;4.45;;
51782;SDS011;37845;53.196;5.638;2023-06-04T13:39:16;9.52;;;4.47;;
51782;SDS011;37845;53.196;5.638;2023-06-04T13:41:42;8.13;;;3.70;;
51782;SDS011;37845;53.196;5.638;2023-06-04T13:44:08;13.40;;;5.07;;
51782;SDS011;37845;53.196;5.638;2023-06-04T13:46:33;6.78;;;3.88;;
51782;SDS011;37845;53.196;5.638;2023-06-04T13:48:59;15.32;;;4.43;;
51782;SDS011;37845;53.196;5.638;2023-06-04T13:51:25;16.48;;;5.03;;
51782;SDS011;37845;53.196;5.638;2023-06-04T13:53:52;8.15;;;4.00;;
51782;SDS011;37845;53.196;5.638;2023-06-04T13:56:18;10.27;;;4.65;;
51782;SDS011;37845;53.196;5.638;2023-06-04T13:58:44;15.93;;;4.60;;
51782;SDS011;37845;53.196;5.638;2023-06-04T14:01:10;10.80;;;4.72;;
51782;SDS011;37845;53.196;5.638;2023-06-04T14:03:35;11.52;;;4.20;;
51782;SDS011;37845;53.196;5.638;2023-06-04T14:06:01;8.00;;;4.50;;
51782;SDS011;37845;53.196;5.638;2023-06-04T14:08:27;10.45;;;3.95;;
51782;SDS011;37845;53.196;5.638;2023-06-04T14:10:53;15.25;;;4.95;;
51782;SDS011;37845;53.196;5.638;2023-06-04T14:13:20;13.23;;;4.55;;
51782;SDS011;37845;53.196;5.638;2023-06-04T14:15:45;10.00;;;4.30;;
51782;SDS011;37845;53.196;5.638;2023-06-04T14:18:11;16.38;;;5.10;;
51782;SDS011;37845;53.196;5.638;2023-06-04T14:20:37;9.02;;;4.18;;
51782;SDS011;37845;53.196;5.638;2023-06-04T14:23:03;15.07;;;4.72;;
51782;SDS011;37845;53.196;5.638;2023-06-04T14:25:28;7.15;;;4.13;;
51782;SDS011;37845;53.196;5.638;2023-06-04T14:27:54;13.35;;;3.63;;
51782;SDS011;37845;53.196;5.638;2023-06-04T14:30:20;12.30;;;4.30;;
51782;SDS011;37845;53.196;5.638;2023-06-04T14:32:46;11.60;;;4.68;;
51782;SDS011;37845;53.196;5.638;2023-06-04T14:35:11;7.93;;;4.32;;
51782;SDS011;37845;53.196;5.638;2023-06-04T14:37:37;8.90;;;3.55;;
51782;SDS011;37845;53.196;5.638;2023-06-04T14:40:03;8.32;;;4.53;;
51782;SDS011;37845;53.196;5.638;2023-06-04T14:42:35;9.45;;;4.22;;
51782;SDS011;37845;53.196;5.638;2023-06-04T14:45:01;7.22;;;4.22;;
51782;SDS011;37845;53.196;5.638;2023-06-04T14:47:28;12.43;;;4.45;;
51782;SDS011;37845;53.196;5.638;2023-06-04T14:49:54;13.60;;;5.72;;
51782;SDS011;37845;53.196;5.638;2023-06-04T14:52:20;9.52;;;4.90;;
51782;SDS011;37845;53.196;5.638;2023-06-04T14:54:45;10.88;;;4.38;;
51782;SDS011;37845;53.196;5.638;2023-06-04T14:57:11;10.32;;;4.82;;
51782;SDS011;37845;53.196;5.638;2023-06-04T14:59:39;9.27;;;4.68;;
51782;SDS011;37845;53.196;5.638;2023-06-04T15:02:05;10.35;;;4.05;;
51782;SDS011;37845;53.196;5.638;2023-06-04T15:04:30;10.13;;;3.47;;
51782;SDS011;37845;53.196;5.638;2023-06-04T15:06:56;7.78;;;3.38;;
51782;SDS011;37845;53.196;5.638;2023-06-04T15:09:22;9.85;;;4.10;;
51782;SDS011;37845;53.196;5.638;2023-06-04T15:11:48;7.40;;;4.10;;
51782;SDS011;37845;53.196;5.638;2023-06-04T15:14:14;7.88;;;3.55;;
51782;SDS011;37845;53.196;5.638;2023-06-04T15:16:40;9.10;;;3.67;;
51782;SDS011;37845;53.196;5.638;2023-06-04T15:19:06;11.77;;;4.82;;
51782;SDS011;37845;53.196;5.638;2023-06-04T15:21:33;11.27;;;4.22;;
51782;SDS011;37845;53.196;5.638;2023-06-04T15:23:59;11.82;;;4.88;;
51782;SDS011;37845;53.196;5.638;2023-06-04T15:26:25;16.13;;;5.65;;
51782;SDS011;37845;53.196;5.638;2023-06-04T15:28:52;9.43;;;4.40;;
51782;SDS011;37845;53.196;5.638;2023-06-04T17:54:34;7.66;;;4.98;;
51782;SDS011;37845;53.196;5.638;2023-06-04T18:09:43;11.15;;;5.00;;
51782;SDS011;37845;53.196;5.638;2023-06-04T18:12:33;14.77;;;4.95;;
51782;SDS011;37845;53.196;5.638;2023-06-04T18:15:07;9.65;;;4.32;;
51782;SDS011;37845;53.196;5.638;2023-06-04T18:23:12;10.70;;;4.55;;
51782;SDS011;37845;53.196;5.638;2023-06-04T18:25:41;15.52;;;5.53;;
51782;SDS011;37845;53.196;5.638;2023-06-04T18:28:07;11.70;;;5.07;;
51782;SDS011;37845;53.196;5.638;2023-06-04T18:30:56;8.80;;;4.68;;
51782;SDS011;37845;53.196;5.638;2023-06-04T18:33:22;10.27;;;4.93;;
51782;SDS011;37845;53.196;5.638;2023-06-04T18:35:58;10.30;;;4.32;;
51782;SDS011;37845;53.196;5.638;2023-06-04T18:38:30;14.18;;;4.65;;
51782;SDS011;37845;53.196;5.638;2023-06-04T18:52:40;9.10;;;5.57;;
51782;SDS011;37845;53.196;5.638;2023-06-04T18:55:10;8.40;;;5.15;;
51782;SDS011;37845;53.196;5.638;2023-06-04T18:57:59;10.27;;;5.82;;
51782;SDS011;37845;53.196;5.638;2023-06-04T19:14:57;17.15;;;6.30;;
51782;SDS011;37845;53.196;5.638;2023-06-04T19:44:43;10.25;;;6.82;;
51782;SDS011;37845;53.196;5.638;2023-06-04T19:49:42;11.07;;;6.88;;
51782;SDS011;37845;53.196;5.638;2023-06-04T19:52:26;12.85;;;6.40;;
51782;SDS011;37845;53.196;5.638;2023-06-04T19:55:12;14.35;;;7.28;;
51782;SDS011;37845;53.196;5.638;2023-06-04T20:02:57;14.82;;;7.65;;
51782;SDS011;37845;53.196;5.638;2023-06-04T20:05:23;18.23;;;7.97;;
51782;SDS011;37845;53.196;5.638;2023-06-04T20:49:13;13.10;;;7.22;;
51782;SDS011;37845;53.196;5.638;2023-06-04T20:54:05;12.63;;;7.35;;
51782;SDS011;37845;53.196;5.638;2023-06-04T20:56:30;15.18;;;7.82;;
51782;SDS011;37845;53.196;5.638;2023-06-04T20:58:56;12.38;;;6.65;;
51782;SDS011;37845;53.196;5.638;2023-06-04T21:01:22;12.70;;;7.10;;
51782;SDS011;37845;53.196;5.638;2023-06-04T21:03:48;13.88;;;7.05;;
51782;SDS011;37845;53.196;5.638;2023-06-04T21:08:39;10.68;;;6.43;;
51782;SDS011;37845;53.196;5.638;2023-06-04T21:11:05;16.08;;;6.93;;
51782;SDS011;37845;53.196;5.638;2023-06-04T21:13:33;15.15;;;7.43;;
51782;SDS011;37845;53.196;5.638;2023-06-04T21:15:59;21.17;;;7.65;;
51782;SDS011;37845;53.196;5.638;2023-06-04T21:18:25;12.68;;;8.13;;
51782;SDS011;37845;53.196;5.638;2023-06-04T21:20:52;11.63;;;6.35;;
51782;SDS011;37845;53.196;5.638;2023-06-04T21:23:19;11.30;;;7.20;;
51782;SDS011;37845;53.196;5.638;2023-06-04T21:28:10;15.38;;;7.10;;
51782;SDS011;37845;53.196;5.638;2023-06-04T21:30:36;11.43;;;6.90;;
51782;SDS011;37845;53.196;5.638;2023-06-04T21:33:03;9.95;;;6.53;;
51782;SDS011;37845;53.196;5.638;2023-06-04T21:37:54;13.15;;;6.63;;
51782;SDS011;37845;53.196;5.638;2023-06-04T21:42:46;12.27;;;6.68;;
51782;SDS011;37845;53.196;5.638;2023-06-04T21:45:12;15.48;;;6.50;;
51782;SDS011;37845;53.196;5.638;2023-06-04T21:50:04;15.15;;;6.35;;
51782;SDS011;37845;53.196;5.638;2023-06-04T21:52:30;11.57;;;6.85;;
51782;SDS011;37845;53.196;5.638;2023-06-04T21:57:21;10.15;;;6.57;;
51782;SDS011;37845;53.196;5.638;2023-06-04T21:59:48;9.75;;;6.57;;
51782;SDS011;37845;53.196;5.638;2023-06-04T22:02:15;11.40;;;6.72;;
51782;SDS011;37845;53.196;5.638;2023-06-04T22:07:06;13.40;;;6.88;;
51782;SDS011;37845;53.196;5.638;2023-06-04T22:11:58;11.65;;;5.45;;
